Time;durP1;ratioP1;P1;durP2;ratioP2;P2;SDS_P1;SDS_P2;PMS_P1;PMS_P2;Temp;Humidity;BMP_temperature;BMP_pressure;BME280_temperature;BME280_humidity;BME280_pressure;Samples;Min_cycle;Max_cycle;Signal;HPM_P1;HPM_P2
2022/11/14 00:01:57;;;;;;;;;38.00;30.25;;;;;10.02;70.07;100821.41;5018097;28;45358;-58
2022/11/14 00:04:22;;;;;;;;;35.25;30.25;;;;;10.03;69.51;100814.88;5017671;28;45435;-58
2022/11/14 00:06:48;;;;;;;;;41.50;36.75;;;;;10.01;70.19;100815.09;4999576;28;45958;-59
2022/11/14 00:09:13;;;;;;;;;47.25;34.00;;;;;9.96;70.01;100806.66;5017545;28;45406;-58
2022/11/14 00:11:39;;;;;;;;;43.50;37.75;;;;;9.96;70.41;100805.78;5009327;28;45431;-60
2022/11/14 00:14:05;;;;;;;;;40.25;36.50;;;;;9.99;69.88;100800.72;4980246;28;45735;-58
2022/11/14 00:16:30;;;;;;;;;46.50;38.00;;;;;10.05;70.40;100804.56;4979674;28;46094;-59
2022/11/14 00:18:56;;;;;;;;;46.00;38.50;;;;;10.07;70.53;100802.44;4963345;28;45436;-56
2022/11/14 00:21:21;;;;;;;;;38.50;33.25;;;;;10.08;70.30;100798.66;4997721;28;45355;-59
2022/11/14 00:23:47;;;;;;;;;39.50;31.25;;;;;10.10;70.34;100796.56;4979561;28;45425;-59
2022/11/14 00:26:12;;;;;;;;;37.00;33.00;;;;;10.12;70.62;100790.84;4997510;28;46014;-59
2022/11/14 00:28:38;;;;;;;;;42.75;34.50;;;;;9.90;70.33;100755.38;4997034;28;45350;-59
2022/11/14 00:31:04;;;;;;;;;36.75;34.00;;;;;10.01;69.74;100789.56;4997745;28;45443;-59
2022/11/14 00:33:29;;;;;;;;;37.25;35.00;;;;;9.98;70.67;100790.00;4943401;28;45364;-57
2022/11/14 00:35:55;;;;;;;;;46.50;36.25;;;;;10.01;69.74;100793.16;4934216;28;46839;-56
2022/11/14 00:38:20;;;;;;;;;47.00;35.00;;;;;10.00;69.83;100786.00;4956064;28;45374;-56
2022/11/14 00:40:46;;;;;;;;;38.50;33.25;;;;;9.95;69.80;100776.69;4957584;28;45327;-56
2022/11/14 00:43:11;;;;;;;;;39.25;33.75;;;;;9.99;69.98;100789.75;4958437;28;45811;-59
2022/11/14 00:45:37;;;;;;;;;50.75;36.50;;;;;9.96;70.60;100783.84;4958118;28;45578;-58
2022/11/14 00:48:02;;;;;;;;;26.00;26.00;;;;;9.94;70.41;100783.22;4958390;28;45609;-57
2022/11/14 00:50:28;;;;;;;;;44.25;35.75;;;;;9.56;70.15;100721.56;4940976;28;45396;-58
2022/11/14 00:52:53;;;;;;;;;41.75;35.75;;;;;9.51;69.86;100718.56;4958203;28;45546;-57
2022/11/14 00:55:19;;;;;;;;;35.00;31.75;;;;;9.84;70.37;100770.75;4957988;28;46606;-58
2022/11/14 00:57:44;;;;;;;;;40.50;33.75;;;;;9.84;70.92;100772.66;4940349;28;45460;-59
2022/11/14 01:00:12;;;;;;;;;42.50;36.25;;;;;9.73;70.35;100763.13;4957640;28;45433;-58
2022/11/14 01:02:37;;;;;;;;;44.60;36.80;;;;;9.60;71.18;100747.47;4958111;28;45324;-55
2022/11/14 01:05:03;;;;;;;;;40.50;35.50;;;;;9.70;70.60;100766.25;4957625;28;46310;-58
2022/11/14 01:07:28;;;;;;;;;40.50;37.00;;;;;9.58;70.44;100752.31;4957557;28;45420;-58
2022/11/14 01:09:54;;;;;;;;;41.25;34.25;;;;;9.57;71.73;100775.28;4957778;28;45365;-56
2022/11/14 01:12:20;;;;;;;;;40.25;33.50;;;;;9.54;71.68;100773.81;4959600;28;45405;-58
2022/11/14 01:14:45;;;;;;;;;43.75;34.50;;;;;9.29;72.40;100735.97;4996380;28;45364;-59
2022/11/14 01:17:11;;;;;;;;;38.50;32.50;;;;;9.62;72.41;100761.84;4996320;28;45452;-61
2022/11/14 01:19:36;;;;;;;;;38.00;30.00;;;;;9.69;71.55;100767.31;4996712;28;45324;-59
2022/11/14 01:22:02;;;;;;;;;45.75;35.00;;;;;9.60;70.95;100740.09;4979400;28;45372;-57
2022/11/14 01:24:27;;;;;;;;;33.50;29.00;;;;;9.72;70.46;100758.72;4996181;28;45349;-59
2022/11/14 01:26:56;;;;;;;;;36.00;30.50;;;;;9.53;71.29;100724.69;4996360;28;45503;-59
2022/11/14 01:29:21;;;;;;;;;41.60;34.20;;;;;9.48;71.18;100728.03;4978897;28;45459;-57
2022/11/14 01:31:47;;;;;;;;;34.25;30.75;;;;;9.58;70.97;100742.22;4996619;28;45532;-57
2022/11/14 01:34:12;;;;;;;;;37.00;31.75;;;;;9.52;70.76;100739.44;4995955;28;45453;-54
2022/11/14 01:36:38;;;;;;;;;37.00;34.25;;;;;9.51;71.56;100743.22;4978962;28;45694;-56
2022/11/14 01:39:03;;;;;;;;;34.50;27.50;;;;;9.53;71.41;100741.13;4996313;28;45277;-57
2022/11/14 01:41:29;;;;;;;;;32.75;28.25;;;;;9.52;70.96;100743.03;4962758;28;45387;-56
2022/11/14 01:43:54;;;;;;;;;36.00;32.00;;;;;9.53;71.63;100733.75;4978448;28;45387;-57
2022/11/14 01:46:24;;;;;;;;;38.50;31.50;;;;;9.42;71.99;100724.25;4978516;28;45389;-57
2022/11/14 01:48:58;;;;;;;;;39.60;33.80;;;;;9.52;71.18;100732.06;4978370;28;45442;-57
2022/11/14 01:51:25;;;;;;;;;35.00;31.60;;;;;9.53;71.58;100720.06;4979576;28;45865;-55
2022/11/14 01:53:54;;;;;;;;;47.60;35.00;;;;;9.63;71.59;100719.69;4978473;28;46824;-56
2022/11/14 01:56:23;;;;;;;;;33.60;31.40;;;;;9.53;71.62;100709.09;4978790;28;45310;-60
2022/11/14 01:58:56;;;;;;;;;37.60;31.00;;;;;9.56;71.66;100711.41;4978278;28;45352;-59
2022/11/14 02:01:21;;;;;;;;;42.20;33.00;;;;;9.59;71.79;100719.25;4962919;28;45355;-55
2022/11/14 02:03:47;;;;;;;;;34.00;30.25;;;;;9.28;71.92;100681.41;4995766;28;46303;-57
2022/11/14 02:06:14;;;;;;;;;39.75;32.25;;;;;9.56;71.26;100721.56;4978535;28;45540;-57
2022/11/14 02:08:39;;;;;;;;;34.60;29.20;;;;;9.56;71.80;100714.16;4961926;28;45477;-57
2022/11/14 02:11:05;;;;;;;;;36.00;31.75;;;;;9.59;71.33;100724.72;4978742;28;45466;-59
2022/11/14 02:13:30;;;;;;;;;32.50;26.75;;;;;9.33;71.40;100693.44;4995514;28;45726;-59
2022/11/14 02:15:56;;;;;;;;;40.00;28.75;;;;;9.56;71.76;100725.13;4985865;28;45386;-59
2022/11/14 02:18:21;;;;;;;;;39.75;32.50;;;;;9.53;71.98;100725.53;4975036;28;45393;-59
2022/11/14 02:20:47;;;;;;;;;44.50;35.00;;;;;9.55;71.17;100726.16;4975320;28;45230;-58
2022/11/14 02:23:12;;;;;;;;;40.50;32.50;;;;;9.54;70.99;100720.91;4974714;28;46484;-57
2022/11/14 02:25:38;;;;;;;;;38.75;33.75;;;;;9.54;71.23;100719.00;4971747;28;45369;-58
2022/11/14 02:28:06;;;;;;;;;39.75;35.00;;;;;9.57;71.47;100726.84;4975006;28;45390;-58
2022/11/14 02:30:31;;;;;;;;;31.60;28.00;;;;;9.58;71.53;100717.56;4958552;28;45579;-55
2022/11/14 02:32:57;;;;;;;;;34.75;30.50;;;;;9.55;71.04;100712.47;4990157;28;45245;-58
2022/11/14 02:35:22;;;;;;;;;33.00;30.75;;;;;9.55;70.37;100706.16;4993589;28;45226;-56
2022/11/14 02:37:48;;;;;;;;;31.00;26.75;;;;;8.51;70.58;100553.66;4994003;28;45463;-55
2022/11/14 02:40:13;;;;;;;;;40.00;32.25;;;;;9.20;71.79;100679.69;4971900;28;45959;-56
2022/11/14 02:42:39;;;;;;;;;31.25;28.25;;;;;9.35;71.04;100694.06;4995567;28;45850;-57
2022/11/14 02:45:05;;;;;;;;;36.75;30.00;;;;;9.18;71.89;100655.25;4977768;28;45427;-56
2022/11/14 02:47:30;;;;;;;;;29.00;28.00;;;;;9.45;72.19;100695.59;4962078;28;45550;-58
2022/11/14 02:49:56;;;;;;;;;34.75;29.00;;;;;9.47;72.16;100688.00;4995574;28;45398;-58
2022/11/14 02:52:21;;;;;;;;;28.75;25.75;;;;;9.46;71.32;100698.09;4990580;28;46225;-59
2022/11/14 02:54:46;;;;;;;;;34.50;24.50;;;;;9.46;71.77;100698.09;5015032;28;45856;-59
2022/11/14 02:57:12;;;;;;;;;27.00;23.00;;;;;9.49;70.83;100688.63;5015759;28;45446;-58
2022/11/14 02:59:37;;;;;;;;;33.00;28.25;;;;;9.41;71.15;100683.34;5015702;28;45467;-59
2022/11/14 03:02:03;;;;;;;;;26.50;24.50;;;;;9.43;70.88;100681.25;5015454;28;46346;-59
2022/11/14 03:04:28;;;;;;;;;23.50;18.75;;;;;9.40;71.47;100668.78;5016300;28;45310;-59
2022/11/14 03:06:54;;;;;;;;;24.25;22.25;;;;;9.38;71.20;100665.44;5015411;28;45266;-58
2022/11/14 03:09:19;;;;;;;;;26.75;23.75;;;;;9.25;71.51;100644.31;5015668;28;45362;-57
2022/11/14 03:11:45;;;;;;;;;35.25;27.25;;;;;9.38;71.49;100659.94;4997387;28;46117;-57
2022/11/14 03:14:10;;;;;;;;;28.00;27.00;;;;;9.41;71.35;100664.16;5015048;28;45667;-58
2022/11/14 03:16:36;;;;;;;;;23.00;20.50;;;;;9.17;71.72;100626.19;5015126;28;45407;-59
2022/11/14 03:19:01;;;;;;;;;28.75;22.75;;;;;9.39;72.09;100664.38;4997212;28;45547;-59
2022/11/14 03:21:27;;;;;;;;;26.50;23.00;;;;;9.38;71.73;100661.88;5015002;28;45450;-54
2022/11/14 03:23:52;;;;;;;;;28.75;23.25;;;;;9.34;71.72;100654.03;5014963;28;45312;-56
2022/11/14 03:26:18;;;;;;;;;30.75;24.75;;;;;9.31;71.38;100662.69;5014915;28;45494;-56
2022/11/14 03:28:44;;;;;;;;;20.50;15.75;;;;;8.44;71.26;100518.09;5015040;28;45482;-55
2022/11/14 03:31:10;;;;;;;;;23.00;20.25;;;;;9.24;71.10;100659.06;5014298;28;46357;-57
2022/11/14 03:33:36;;;;;;;;;21.80;20.00;;;;;9.01;71.59;100626.56;4996837;28;45425;-58
2022/11/14 03:36:02;;;;;;;;;20.50;19.00;;;;;9.22;71.75;100663.91;4999954;28;45356;-58
2022/11/14 03:38:28;;;;;;;;;22.60;20.20;;;;;8.90;70.94;100611.53;5018477;28;45251;-59
2022/11/14 03:40:53;;;;;;;;;26.25;20.00;;;;;9.23;71.22;100660.09;5018033;28;46003;-57
2022/11/14 03:43:19;;;;;;;;;19.25;17.75;;;;;9.26;71.66;100665.19;5017837;28;45205;-59
2022/11/14 03:45:45;;;;;;;;;24.40;18.40;;;;;9.22;71.50;100661.16;5018203;28;45304;-60
2022/11/14 03:48:10;;;;;;;;;26.50;22.50;;;;;9.15;71.43;100652.94;5017945;28;45613;-57
2022/11/14 03:50:36;;;;;;;;;26.50;22.75;;;;;9.15;71.75;100657.56;5000068;28;46225;-56
2022/11/14 03:53:01;;;;;;;;;17.25;14.50;;;;;9.21;72.16;100656.72;5017486;28;45387;-57
2022/11/14 03:55:27;;;;;;;;;20.75;16.75;;;;;9.18;71.47;100646.19;5017916;28;45322;-54
2022/11/14 03:57:52;;;;;;;;;28.25;21.25;;;;;9.15;72.11;100641.97;5018337;28;45553;-56
2022/11/14 04:00:18;;;;;;;;;27.50;24.75;;;;;9.22;72.47;100642.00;4983026;28;46804;-56
2022/11/14 04:02:44;;;;;;;;;21.25;16.25;;;;;9.24;71.64;100647.25;5017633;28;45410;-57
2022/11/14 04:05:09;;;;;;;;;26.25;22.00;;;;;9.22;72.07;100642.00;5017790;28;45423;-58
2022/11/14 04:07:35;;;;;;;;;21.50;19.75;;;;;9.18;72.10;100643.47;5018033;28;45546;-58
2022/11/14 04:10:00;;;;;;;;;19.50;17.75;;;;;9.22;72.93;100644.72;4999350;28;47650;-58
2022/11/14 04:12:26;;;;;;;;;22.00;19.50;;;;;9.24;72.73;100639.06;5013074;28;45490;-58
2022/11/14 04:14:51;;;;;;;;;20.25;17.25;;;;;9.22;72.46;100639.25;4997957;28;45548;-58
2022/11/14 04:17:17;;;;;;;;;21.25;18.75;;;;;9.14;71.67;100633.97;4997554;28;45375;-57
2022/11/14 04:19:42;;;;;;;;;20.75;18.00;;;;;9.18;72.42;100640.72;4997403;28;46597;-57
2022/11/14 04:22:08;;;;;;;;;20.75;14.75;;;;;9.27;72.01;100655.06;4980103;28;45439;-58
2022/11/14 04:24:33;;;;;;;;;20.50;15.75;;;;;9.23;72.51;100649.16;4979854;28;45354;-58
2022/11/14 04:26:59;;;;;;;;;24.75;21.50;;;;;9.24;71.71;100658.22;4997842;28;45961;-58
2022/11/14 04:29:24;;;;;;;;;21.00;19.50;;;;;9.14;73.06;100653.97;4997127;28;45852;-57
2022/11/14 04:31:50;;;;;;;;;30.00;20.00;;;;;9.06;73.03;100659.63;4997291;28;45380;-57
2022/11/14 04:34:15;;;;;;;;;26.75;19.50;;;;;8.81;73.08;100632.78;4997797;28;45392;-56
2022/11/14 04:36:41;;;;;;;;;22.50;19.75;;;;;9.06;72.57;100655.00;4997310;28;45352;-56
2022/11/14 04:39:06;;;;;;;;;25.25;20.25;;;;;9.04;73.48;100651.63;4997433;28;46387;-55
2022/11/14 04:41:32;;;;;;;;;25.50;18.75;;;;;8.99;73.97;100653.28;4997011;28;45456;-56
2022/11/14 04:43:57;;;;;;;;;20.25;17.50;;;;;8.62;72.81;100599.63;4997453;28;45300;-57
2022/11/14 04:46:23;;;;;;;;;18.25;15.25;;;;;8.90;74.02;100644.38;4996860;28;45518;-58
2022/11/14 04:48:48;;;;;;;;;21.75;17.50;;;;;8.90;73.18;100645.22;4997027;28;45517;-58
2022/11/14 04:51:14;;;;;;;;;20.75;19.50;;;;;8.95;73.90;100642.75;4997321;28;45456;-58
2022/11/14 04:53:39;;;;;;;;;19.00;17.00;;;;;8.94;73.02;100634.72;4996668;28;45427;-56
2022/11/14 04:56:05;;;;;;;;;19.50;13.50;;;;;8.92;73.07;100642.31;4997610;28;45420;-57
2022/11/14 04:58:31;;;;;;;;;26.75;19.25;;;;;8.63;73.18;100584.03;4997055;28;46472;-58
2022/11/14 05:00:56;;;;;;;;;20.00;18.75;;;;;8.96;73.20;100632.63;4996675;28;45457;-59
2022/11/14 05:03:23;;;;;;;;;24.00;21.25;;;;;8.97;73.86;100625.25;4997107;28;45378;-58
2022/11/14 05:05:48;;;;;;;;;19.80;16.20;;;;;8.97;72.88;100620.66;4996938;28;45598;-56
2022/11/14 05:08:14;;;;;;;;;23.00;19.50;;;;;8.93;72.71;100625.66;4997188;28;45405;-55
2022/11/14 05:10:43;;;;;;;;;19.25;15.50;;;;;8.84;73.66;100621.41;4996531;28;45702;-56
2022/11/14 05:13:09;;;;;;;;;20.60;18.80;;;;;8.81;73.77;100617.19;4969628;28;45476;-57
2022/11/14 05:15:34;;;;;;;;;25.00;17.75;;;;;8.86;74.06;100604.78;4996997;28;45364;-59
2022/11/14 05:18:00;;;;;;;;;26.50;17.75;;;;;8.76;73.57;100595.06;4996286;28;46495;-56
2022/11/14 05:20:25;;;;;;;;;19.25;17.25;;;;;8.92;74.33;100614.94;4996906;28;45420;-56
2022/11/14 05:22:55;;;;;;;;;29.25;22.50;;;;;8.89;74.00;100615.31;4979135;28;45389;-57
2022/11/14 05:25:21;;;;;;;;;16.40;14.60;;;;;8.84;74.01;100602.25;4998462;28;45228;-58
2022/11/14 05:27:46;;;;;;;;;27.00;22.20;;;;;8.90;74.24;100609.66;4999550;28;46528;-55
2022/11/14 05:30:12;;;;;;;;;23.75;18.00;;;;;8.95;73.75;100606.28;4997689;28;45327;-56
2022/11/14 05:32:38;;;;;;;;;26.50;21.75;;;;;8.98;74.30;100605.03;4997085;28;47200;-56
2022/11/14 05:35:04;;;;;;;;;21.50;18.75;;;;;8.87;74.62;100576.38;4979206;28;45447;-56
2022/11/14 05:37:29;;;;;;;;;19.40;16.80;;;;;8.93;73.36;100594.72;4978968;28;46551;-58
2022/11/14 05:39:55;;;;;;;;;20.50;16.75;;;;;9.00;73.55;100592.00;4996553;28;45805;-58
2022/11/14 05:42:20;;;;;;;;;15.50;14.50;;;;;8.95;73.96;100587.13;4996357;28;45427;-59
2022/11/14 05:44:46;;;;;;;;;20.00;18.25;;;;;8.99;73.87;100582.94;4996737;28;45615;-59
2022/11/14 05:47:11;;;;;;;;;20.50;15.50;;;;;8.93;73.31;100570.91;4995762;28;46662;-54
2022/11/14 05:49:37;;;;;;;;;26.25;21.50;;;;;9.05;74.29;100584.00;4978545;28;45416;-56
2022/11/14 05:52:02;;;;;;;;;22.75;20.25;;;;;9.06;74.13;100583.81;4995868;28;45461;-56
2022/11/14 05:54:28;;;;;;;;;21.50;19.25;;;;;9.11;73.96;100582.38;4996813;28;45411;-56
2022/11/14 05:56:53;;;;;;;;;23.75;22.00;;;;;8.95;73.48;100557.88;4961111;28;48383;-56
2022/11/14 05:59:19;;;;;;;;;23.75;20.00;;;;;9.09;73.40;100572.44;4995954;28;45344;-55
2022/11/14 06:01:45;;;;;;;;;25.00;20.40;;;;;8.98;73.90;100556.63;4959107;28;45235;-55
2022/11/14 06:04:12;;;;;;;;;22.50;19.25;;;;;9.04;73.59;100572.22;4996335;28;45693;-52
2022/11/14 06:06:37;;;;;;;;;21.00;20.00;;;;;9.05;74.16;100570.31;4995817;28;47057;-58
2022/11/14 06:09:03;;;;;;;;;21.00;20.00;;;;;9.05;74.10;100565.69;4995884;28;45261;-57
2022/11/14 06:11:28;;;;;;;;;26.75;20.25;;;;;9.03;73.92;100566.97;4996293;28;45560;-56
2022/11/14 06:13:54;;;;;;;;;24.50;23.00;;;;;8.98;74.66;100556.63;4956209;28;45672;-57
2022/11/14 06:16:19;;;;;;;;;30.75;21.75;;;;;9.01;74.06;100563.59;4993361;28;46756;-59
2022/11/14 06:18:45;;;;;;;;;22.75;19.25;;;;;8.92;73.92;100565.66;4996140;28;45982;-58
2022/11/14 06:21:11;;;;;;;;;24.00;18.75;;;;;8.57;74.69;100525.53;4978085;28;45518;-59
2022/11/14 06:23:37;;;;;;;;;22.80;18.60;;;;;8.69;74.70;100533.97;4996067;28;45381;-56
2022/11/14 06:26:04;;;;;;;;;23.25;16.50;;;;;8.73;74.71;100537.16;4995286;28;45480;-53
2022/11/14 06:28:29;;;;;;;;;12.00;11.00;;;;;8.67;74.87;100526.00;4995851;28;45456;-59
2022/11/14 06:31:02;;;;;;;;;27.00;22.75;;;;;8.73;74.09;100545.38;4962037;28;45324;-59
2022/11/14 06:33:29;;;;;;;;;19.40;16.60;;;;;8.87;73.93;100568.16;4978188;28;45559;-56
2022/11/14 06:36:01;;;;;;;;;16.60;15.40;;;;;8.86;74.59;100571.94;4961934;28;45337;-56
2022/11/14 06:38:27;;;;;;;;;18.20;14.80;;;;;8.91;74.30;100574.94;4995547;28;45399;-56
2022/11/14 06:41:00;;;;;;;;;25.25;17.75;;;;;8.93;74.23;100573.66;4996117;28;45925;-57
2022/11/14 06:43:26;;;;;;;;;23.00;19.60;;;;;8.74;74.38;100536.09;4978080;28;45832;-57
2022/11/14 06:45:55;;;;;;;;;23.50;20.25;;;;;8.52;74.67;100507.00;4995446;28;45815;-56
2022/11/14 06:48:20;;;;;;;;;19.60;18.60;;;;;9.04;74.80;100580.44;4995325;28;45342;-59
2022/11/14 06:50:53;;;;;;;;;18.50;17.00;;;;;9.05;74.54;100582.13;4995636;28;45237;-59
2022/11/14 06:53:18;;;;;;;;;18.20;16.80;;;;;9.03;74.83;100575.16;4995085;28;45469;-58
2022/11/14 06:56:00;;;;;;;;;19.75;15.50;;;;;8.93;73.91;100578.28;4995787;28;45694;-56
2022/11/14 06:58:27;;;;;;;;;20.20;18.00;;;;;8.78;74.02;100551.94;4977710;28;45620;-58
2022/11/14 07:00:52;;;;;;;;;20.80;14.80;;;;;8.97;74.18;100590.53;4995330;28;45542;-59
2022/11/14 07:03:18;;;;;;;;;17.00;16.75;;;;;8.63;74.65;100560.28;4977663;28;45388;-60
2022/11/14 07:05:43;;;;;;;;;14.50;14.50;;;;;8.93;74.23;100605.66;4977323;28;48187;-57
2022/11/14 07:08:09;;;;;;;;;18.00;14.75;;;;;8.92;74.24;100606.72;4977692;28;45317;-55
2022/11/14 07:10:34;;;;;;;;;17.50;15.00;;;;;8.81;74.70;100598.03;4995295;28;45238;-54
2022/11/14 07:13:00;;;;;;;;;15.00;15.00;;;;;8.85;74.03;100609.41;4995321;28;45391;-55
2022/11/14 07:15:25;;;;;;;;;21.50;15.25;;;;;8.86;74.69;100602.06;4995131;28;46513;-56
2022/11/14 07:17:51;;;;;;;;;12.25;10.25;;;;;8.89;74.74;100609.84;4994995;28;45381;-57
2022/11/14 07:20:19;;;;;;;;;17.00;12.50;;;;;8.84;74.34;100605.00;4977618;28;45382;-55
2022/11/14 07:22:45;;;;;;;;;23.00;17.00;;;;;8.83;74.08;100608.78;4977755;28;45510;-57
2022/11/14 07:25:11;;;;;;;;;19.60;19.20;;;;;8.82;74.07;100612.56;4995036;28;47617;-57
2022/11/14 07:27:36;;;;;;;;;17.00;17.00;;;;;8.84;73.52;100609.59;4994652;28;45388;-57
2022/11/14 07:30:02;;;;;;;;;17.75;15.25;;;;;8.85;73.83;100614.88;4994987;28;45285;-58
2022/11/14 07:32:27;;;;;;;;;17.75;15.25;;;;;8.86;74.48;100608.34;4994969;28;45375;-58
2022/11/14 07:34:53;;;;;;;;;30.00;20.00;;;;;8.90;73.84;100603.31;4994900;28;46457;-55
2022/11/14 07:37:18;;;;;;;;;18.25;14.75;;;;;8.84;73.79;100602.25;4994790;28;45430;-55
2022/11/14 07:39:44;;;;;;;;;28.25;19.25;;;;;8.80;73.32;100609.16;4995205;28;45289;-55
2022/11/14 07:42:10;;;;;;;;;21.00;19.60;;;;;8.83;73.87;100608.78;4977659;28;45511;-55
2022/11/14 07:44:36;;;;;;;;;18.25;15.50;;;;;8.81;74.07;100606.25;4976853;28;45297;-57
2022/11/14 07:47:01;;;;;;;;;19.25;15.75;;;;;8.46;73.73;100551.53;4994521;28;45380;-58
2022/11/14 07:49:26;;;;;;;;;18.00;14.00;;;;;8.84;73.94;100609.59;4995008;28;45434;-57
2022/11/14 07:51:52;;;;;;;;;21.25;15.00;;;;;8.70;74.06;100589.56;4995284;28;45300;-56
2022/11/14 07:54:17;;;;;;;;;20.25;17.75;;;;;8.43;74.66;100560.13;4994666;28;45334;-57
2022/11/14 07:56:43;;;;;;;;;12.75;12.75;;;;;8.67;74.90;100608.09;4994508;28;45380;-59
2022/11/14 07:59:08;;;;;;;;;20.00;15.25;;;;;8.60;74.79;100598.97;4977212;28;45275;-58
2022/11/14 08:01:34;;;;;;;;;17.50;14.00;;;;;8.73;74.54;100611.91;4995022;28;45381;-56
2022/11/14 08:03:59;;;;;;;;;15.00;12.75;;;;;8.68;74.28;100597.97;4994346;28;45962;-56
2022/11/14 08:06:25;;;;;;;;;15.50;11.25;;;;;8.54;74.18;100567.81;4994544;28;45426;-55
2022/11/14 08:08:50;;;;;;;;;14.75;12.75;;;;;8.74;74.17;100602.63;4994722;28;45400;-56
2022/11/14 08:11:46;;;;;;;;;22.00;15.75;;;;;8.66;74.55;100603.63;4994937;28;45474;-56
2022/11/14 08:14:01;;;;;;;;;15.40;12.00;;;;;8.53;75.15;100590.75;4962753;28;46446;-56
2022/11/14 08:16:27;;;;;;;;;12.50;10.50;;;;;8.60;75.00;100596.25;4977012;28;45738;-58
2022/11/14 08:18:52;;;;;;;;;19.00;13.25;;;;;8.65;75.32;100601.13;4994409;28;45359;-57
2022/11/14 08:21:18;;;;;;;;;13.00;10.50;;;;;8.72;74.56;100601.16;4997220;28;45399;-58
2022/11/14 08:23:44;;;;;;;;;10.50;9.00;;;;;8.77;74.94;100607.72;4997747;28;45573;-60
2022/11/14 08:26:09;;;;;;;;;13.80;13.80;;;;;8.87;74.63;100601.00;4997258;28;45507;-58
2022/11/14 08:28:35;;;;;;;;;20.50;18.00;;;;;8.52;73.99;100548.03;4997998;28;45436;-59
2022/11/14 08:31:01;;;;;;;;;18.75;14.50;;;;;8.88;73.89;100598.06;4997902;28;45329;-59
2022/11/14 08:33:26;;;;;;;;;14.40;13.20;;;;;8.85;74.04;100601.19;4997344;28;46799;-59
2022/11/14 08:35:52;;;;;;;;;20.25;13.75;;;;;8.69;74.46;100553.13;4997655;28;45277;-55
2022/11/14 08:38:18;;;;;;;;;19.50;17.50;;;;;8.91;73.74;100600.38;4997268;28;45376;-56
2022/11/14 08:40:43;;;;;;;;;18.00;14.25;;;;;8.88;74.80;100599.94;4998051;28;45305;-55
2022/11/14 08:43:10;;;;;;;;;14.25;12.25;;;;;8.89;73.55;100607.09;4997385;28;46114;-55
2022/11/14 08:45:36;;;;;;;;;17.60;13.80;;;;;8.89;74.40;100607.97;4997460;28;45488;-54
2022/11/14 08:48:05;;;;;;;;;20.75;13.00;;;;;8.63;74.51;100578.56;4997188;28;45424;-53
2022/11/14 08:50:31;;;;;;;;;15.00;14.20;;;;;8.78;74.28;100609.41;4956560;28;45586;-56
2022/11/14 08:52:56;;;;;;;;;14.80;14.00;;;;;8.78;74.72;100603.06;4996770;28;46339;-54
2022/11/14 08:55:22;;;;;;;;;15.50;15.50;;;;;8.40;74.28;100539.50;4997143;28;45365;-57
2022/11/14 08:57:47;;;;;;;;;15.00;13.75;;;;;8.82;75.05;100587.94;4997334;28;45246;-52
2022/11/14 09:00:14;;;;;;;;;15.25;14.25;;;;;8.98;74.20;100616.84;4997289;28;45222;-51
2022/11/14 09:02:40;;;;;;;;;17.40;15.80;;;;;9.03;74.09;100619.78;4996718;28;46316;-54
2022/11/14 09:05:06;;;;;;;;;17.20;15.60;;;;;8.92;73.66;100604.81;4997074;28;45392;-54
2022/11/14 09:07:31;;;;;;;;;20.50;14.50;;;;;9.02;73.71;100615.38;4997006;28;45317;-52
2022/11/14 09:09:57;;;;;;;;;14.25;13.50;;;;;8.61;74.16;100542.38;4997348;28;45650;-54
2022/11/14 09:12:22;;;;;;;;;16.25;15.75;;;;;9.09;72.99;100610.75;4962854;28;48193;-55
2022/11/14 09:14:48;;;;;;;;;10.00;10.00;;;;;9.02;73.17;100596.22;4978359;28;45380;-51
2022/11/14 09:17:13;;;;;;;;;13.00;13.00;;;;;9.08;73.92;100613.72;4995027;28;45425;-54
2022/11/14 09:19:39;;;;;;;;;20.00;16.00;;;;;9.06;74.49;100604.84;4997317;28;45497;-55
2022/11/14 09:22:04;;;;;;;;;14.75;13.25;;;;;8.84;73.86;100558.47;4994280;28;45816;-55
2022/11/14 09:24:30;;;;;;;;;15.50;15.50;;;;;9.21;73.46;100612.91;4961852;28;45456;-57
2022/11/14 09:26:56;;;;;;;;;15.25;14.50;;;;;9.25;73.42;100607.88;4972289;28;45894;-58
2022/11/14 09:29:21;;;;;;;;;19.25;16.25;;;;;9.30;72.93;100617.19;4962251;28;45398;-58
2022/11/14 09:31:47;;;;;;;;;21.75;20.00;;;;;9.27;72.75;100605.75;4996255;28;45816;-56
2022/11/14 09:34:12;;;;;;;;;20.25;15.25;;;;;9.23;72.60;100613.53;5011331;28;45476;-59
2022/11/14 09:36:38;;;;;;;;;19.25;17.50;;;;;9.13;73.88;100588.47;5010056;28;45561;-54
2022/11/14 09:39:03;;;;;;;;;20.50;16.00;;;;;8.67;73.13;100519.66;4993677;28;45929;-54
2022/11/14 09:42:06;;;;;;;;;28.00;23.75;;;;;9.19;73.62;100610.38;5001629;28;46131;-55
2022/11/14 09:44:48;;;;;;;;;21.80;19.40;;;;;9.15;73.60;100594.56;4968343;28;45603;-55
2022/11/14 09:47:16;;;;;;;;;28.60;22.80;;;;;8.95;73.47;100544.19;4958156;28;45643;-53
2022/11/14 09:49:44;;;;;;;;;25.60;19.60;;;;;9.24;73.33;100606.19;4980500;28;46021;-60
2022/11/14 09:52:16;;;;;;;;;27.80;24.20;;;;;9.28;73.62;100600.09;4993253;28;45815;-55
2022/11/14 09:54:50;;;;;;;;;31.00;24.20;;;;;8.86;73.52;100501.63;5010644;28;45333;-53
2022/11/14 09:57:16;;;;;;;;;32.40;26.60;;;;;9.31;72.84;100574.19;4993267;28;45397;-52
2022/11/14 09:59:42;;;;;;;;;27.80;24.20;;;;;9.53;72.68;100590.44;4993162;28;45351;-57
2022/11/14 10:02:30;;;;;;;;;31.00;26.50;;;;;9.58;72.86;100591.50;4991826;28;46725;-58
2022/11/14 10:05:26;;;;;;;;;27.60;25.20;;;;;9.70;73.01;100604.56;4992881;28;45505;-58
2022/11/14 10:07:51;;;;;;;;;33.00;28.20;;;;;9.71;71.73;100601.63;5003398;28;45439;-58
2022/11/14 10:10:27;;;;;;;;;28.50;26.00;;;;;9.31;71.89;100550.38;4973154;28;45471;-57
2022/11/14 10:13:42;;;;;;;;;22.60;17.00;;;;;9.62;72.30;100611.13;4972909;28;45655;-56
2022/11/14 10:16:49;;;;;;;;;27.80;26.00;;;;;9.67;71.87;100600.38;4901703;28;47264;-55
2022/11/14 10:19:20;;;;;;;;;30.80;23.20;;;;;9.70;71.59;100599.09;4953760;28;45353;-57
2022/11/14 10:22:01;;;;;;;;;26.40;20.20;;;;;9.75;72.46;100600.16;5010836;28;45530;-57
2022/11/14 10:24:50;;;;;;;;;22.60;20.60;;;;;9.87;71.83;100589.41;4968852;28;47738;-57
2022/11/14 10:27:26;;;;;;;;;32.20;23.40;;;;;9.98;71.60;100592.56;4964749;28;45502;-55
2022/11/14 10:29:59;;;;;;;;;28.00;26.00;;;;;10.09;70.37;100591.09;4991062;28;45666;-56
2022/11/14 10:32:31;;;;;;;;;31.60;26.80;;;;;10.15;70.94;100580.09;4991098;28;45479;-57
2022/11/14 10:35:13;;;;;;;;;33.00;27.80;;;;;9.78;70.16;100502.97;4972455;28;46186;-56
2022/11/14 10:38:01;;;;;;;;;27.20;25.00;;;;;10.33;69.66;100570.38;4989681;28;45463;-57
2022/11/14 10:40:42;;;;;;;;;31.40;27.40;;;;;10.13;70.17;100526.50;4973082;28;45508;-54
2022/11/14 10:43:43;;;;;;;;;28.40;26.00;;;;;10.55;69.67;100572.88;4941400;28;45535;-52
2022/11/14 10:46:31;;;;;;;;;22.40;21.80;;;;;10.55;69.21;100565.50;4967152;28;46323;-58
2022/11/14 10:48:57;;;;;;;;;26.80;22.60;;;;;10.68;69.58;100566.50;4969491;28;45742;-56
2022/11/14 10:51:42;;;;;;;;;23.75;22.00;;;;;10.48;69.48;100518.03;4971054;28;45655;-53
2022/11/14 10:54:45;;;;;;;;;24.60;21.40;;;;;10.95;68.00;100560.88;4992335;28;45447;-58
2022/11/14 10:57:15;;;;;;;;;21.00;19.20;;;;;10.99;68.15;100551.13;5010268;28;45706;-57
2022/11/14 10:59:41;;;;;;;;;20.20;16.80;;;;;11.16;68.49;100564.38;5009955;28;45380;-54
2022/11/14 11:02:07;;;;;;;;;21.80;21.80;;;;;11.33;66.88;100557.28;4990756;28;45875;-55
2022/11/14 11:04:35;;;;;;;;;25.25;21.25;;;;;11.41;66.88;100556.16;4988649;28;45367;-53
2022/11/14 11:07:06;;;;;;;;;25.20;23.60;;;;;11.56;66.54;100557.75;4989011;28;46312;-57
2022/11/14 11:12:44;;;;;;;;;29.60;24.40;;;;;12.03;65.50;100554.59;4992684;28;45634;-52
2022/11/14 11:15:23;;;;;;;;;19.80;19.00;;;;;12.97;62.44;100508.66;4977640;28;45865;-55
2022/11/14 11:17:53;;;;;;;;;23.60;23.60;;;;;14.08;59.70;100545.06;4996128;28;46574;-59
2022/11/14 11:20:36;;;;;;;;;25.60;23.00;;;;;15.82;55.33;100509.22;5007828;28;45813;-54
2022/11/14 11:23:01;;;;;;;;;24.80;21.80;;;;;17.47;52.73;100531.75;4990413;28;45626;-57